createdAt,value
2022-10-28T00:00:32.607Z,9.20
2022-10-28T00:03:01.839Z,8.48
2022-10-28T00:05:29.501Z,10.45
2022-10-28T00:07:57.162Z,9.52
2022-10-28T00:10:24.783Z,12.70
2022-10-28T00:12:53.798Z,8.95
2022-10-28T00:15:21.386Z,8.02
2022-10-28T00:17:49.102Z,9.98
2022-10-28T00:20:16.890Z,9.00
2022-10-28T00:22:44.888Z,10.63
2022-10-28T00:25:12.740Z,11.50
2022-10-28T00:27:40.362Z,8.33
2022-10-28T00:30:10.481Z,9.60
2022-10-28T00:32:38.159Z,9.80
2022-10-28T00:35:06.700Z,10.88
2022-10-28T00:37:34.306Z,9.17
2022-10-28T00:40:01.945Z,7.75
2022-10-28T00:42:29.566Z,8.43
2022-10-28T00:44:59.137Z,8.65
2022-10-28T00:47:51.948Z,10.32
2022-10-28T00:50:41.339Z,8.65
2022-10-28T00:53:12.587Z,7.60
2022-10-28T00:55:40.209Z,10.40
2022-10-28T00:58:09.228Z,10.20
2022-10-28T01:00:37.049Z,8.20
2022-10-28T01:03:06.145Z,9.07
2022-10-28T01:05:36.142Z,10.05
2022-10-28T01:08:05.371Z,7.78
2022-10-28T01:10:53.233Z,8.35
2022-10-28T01:13:28.079Z,11.45
2022-10-28T01:16:00.652Z,11.00
2022-10-28T01:18:33.313Z,10.80
2022-10-28T01:21:38.996Z,7.73
2022-10-28T01:24:16.791Z,8.15
2022-10-28T01:27:35.377Z,10.23
2022-10-28T01:30:09.617Z,8.67
2022-10-28T01:32:49.277Z,7.87
2022-10-28T01:35:20.471Z,10.70
2022-10-28T01:37:51.863Z,10.15
2022-10-28T01:40:23.238Z,9.40
2022-10-28T01:42:54.851Z,8.45
2022-10-28T01:45:26.325Z,9.43
2022-10-28T01:47:58.949Z,8.35
2022-10-28T01:50:30.062Z,7.20
2022-10-28T01:53:00.256Z,9.25
2022-10-28T01:55:29.499Z,10.15
2022-10-28T01:57:59.138Z,7.57
2022-10-28T02:00:27.033Z,9.73
2022-10-28T02:02:57.012Z,10.80
2022-10-28T02:05:42.729Z,9.07
2022-10-28T02:08:36.633Z,10.38
2022-10-28T02:11:34.116Z,7.82
2022-10-28T02:14:08.585Z,16.33
2022-10-28T02:16:43.705Z,9.98
2022-10-28T02:19:16.728Z,9.27
2022-10-28T02:21:50.823Z,9.75
2022-10-28T02:24:20.749Z,8.83
2022-10-28T02:26:54.195Z,11.23
2022-10-28T02:29:28.624Z,9.07
2022-10-28T02:31:58.961Z,10.87
2022-10-28T02:34:30.890Z,10.15
2022-10-28T02:37:00.934Z,10.25
2022-10-28T02:39:31.281Z,8.98
2022-10-28T02:42:01.384Z,11.63
2022-10-28T02:44:30.695Z,9.38
2022-10-28T02:47:00.987Z,8.48
2022-10-28T02:49:32.910Z,11.10
2022-10-28T02:52:03.071Z,10.90
2022-10-28T02:54:33.854Z,9.73
2022-10-28T02:57:05.383Z,13.90
2022-10-28T02:59:33.010Z,9.13
2022-10-28T03:02:00.817Z,8.70
2022-10-28T03:04:29.958Z,8.02
2022-10-28T03:06:57.557Z,10.80
2022-10-28T03:09:25.255Z,10.15
2022-10-28T03:11:52.991Z,8.88
2022-10-28T03:14:20.612Z,8.85
2022-10-28T03:16:48.238Z,9.23
2022-10-28T03:19:15.906Z,8.73
2022-10-28T03:21:44.912Z,10.27
2022-10-28T03:24:12.492Z,9.75
2022-10-28T03:26:40.128Z,9.63
2022-10-28T03:29:07.777Z,9.87
2022-10-28T03:31:35.419Z,10.68
2022-10-28T03:34:03.077Z,8.50
2022-10-28T03:36:30.685Z,11.98
2022-10-28T03:38:59.663Z,9.80
2022-10-28T03:41:27.325Z,8.25
2022-10-28T03:43:55.141Z,10.35
2022-10-28T03:46:22.761Z,11.57
2022-10-28T03:48:50.383Z,9.55
2022-10-28T03:51:18.238Z,8.75
2022-10-28T03:53:45.896Z,10.90
2022-10-28T03:56:14.945Z,10.27
2022-10-28T03:58:42.645Z,10.43
2022-10-28T04:01:10.412Z,11.02
2022-10-28T04:03:38.078Z,12.07
2022-10-28T04:06:06.122Z,8.35
2022-10-28T04:08:33.812Z,11.93
2022-10-28T04:11:01.466Z,9.05
2022-10-28T04:13:30.455Z,8.30
2022-10-28T04:15:58.070Z,7.68
2022-10-28T04:18:25.714Z,10.10
2022-10-28T04:20:53.312Z,10.57
2022-10-28T04:23:20.958Z,9.45
2022-10-28T04:25:52.253Z,11.68
2022-10-28T04:28:19.889Z,8.00
2022-10-28T04:30:49.193Z,9.35
2022-10-28T04:33:16.988Z,9.32
2022-10-28T04:35:44.608Z,9.30
2022-10-28T04:38:12.569Z,9.45
2022-10-28T04:40:40.216Z,7.65
2022-10-28T04:43:09.887Z,10.55
2022-10-28T04:45:38.418Z,11.35
2022-10-28T04:48:07.889Z,8.55
2022-10-28T04:50:35.486Z,12.10
2022-10-28T04:53:03.097Z,10.48
2022-10-28T04:55:30.718Z,11.25
2022-10-28T04:57:59.837Z,11.27
2022-10-28T05:00:28.581Z,9.93
2022-10-28T05:02:57.047Z,9.10
2022-10-28T05:05:26.532Z,10.75
2022-10-28T05:07:54.317Z,10.48
2022-10-28T05:10:22.121Z,10.32
2022-10-28T05:12:49.740Z,12.00
2022-10-28T05:15:17.639Z,14.00
2022-10-28T05:17:46.829Z,8.98
2022-10-28T05:20:16.660Z,9.15
2022-10-28T05:22:49.168Z,8.05
2022-10-28T05:25:16.968Z,10.77
2022-10-28T05:27:44.848Z,10.10
2022-10-28T05:30:13.395Z,11.45
2022-10-28T05:32:41.167Z,10.73
2022-10-28T05:35:09.800Z,12.00
2022-10-28T05:37:37.648Z,13.57
2022-10-28T05:40:07.632Z,10.57
2022-10-28T05:42:35.271Z,11.43
2022-10-28T05:45:02.921Z,8.75
2022-10-28T05:47:30.557Z,11.00
2022-10-28T05:49:58.170Z,11.68
2022-10-28T05:52:26.418Z,12.27
2022-10-28T05:54:54.029Z,10.67
2022-10-28T05:57:23.093Z,9.98
2022-10-28T05:59:50.658Z,12.65
2022-10-28T06:02:18.334Z,12.45
2022-10-28T06:04:45.937Z,12.15
2022-10-28T06:07:13.550Z,11.18
2022-10-28T06:09:41.199Z,12.57
2022-10-28T06:12:07.885Z,10.50
2022-10-28T06:14:36.875Z,12.60
2022-10-28T06:17:04.452Z,11.23
2022-10-28T06:19:31.991Z,8.60
2022-10-28T06:21:59.719Z,10.73
2022-10-28T06:24:27.356Z,11.45
2022-10-28T06:26:55.003Z,14.25
2022-10-28T06:29:22.641Z,9.43
2022-10-28T06:31:51.671Z,12.80
2022-10-28T06:34:19.313Z,13.68
2022-10-28T06:36:46.933Z,14.93
2022-10-28T06:39:14.572Z,11.98
2022-10-28T06:41:42.357Z,9.73
2022-10-28T06:44:10.066Z,12.52
2022-10-28T06:46:39.175Z,11.43
2022-10-28T06:49:09.054Z,9.05
2022-10-28T06:51:36.694Z,10.60
2022-10-28T06:54:04.445Z,11.38
2022-10-28T06:56:32.042Z,12.38
2022-10-28T06:58:59.669Z,11.63
2022-10-28T07:01:27.399Z,11.65
2022-10-28T07:03:55.070Z,11.60
2022-10-28T07:06:24.087Z,11.38
2022-10-28T07:08:52.591Z,16.98
2022-10-28T07:11:20.237Z,14.85
2022-10-28T07:13:49.025Z,10.63
2022-10-28T07:16:16.833Z,11.57
2022-10-28T07:18:44.495Z,12.37
2022-10-28T07:21:12.303Z,13.02
2022-10-28T07:23:41.353Z,11.33
2022-10-28T07:26:08.935Z,14.15
2022-10-28T07:28:36.552Z,10.90
2022-10-28T07:31:05.095Z,11.90
2022-10-28T07:35:48.145Z,13.40
2022-10-28T07:38:15.864Z,10.48
2022-10-28T07:40:43.480Z,11.65
2022-10-28T07:43:11.130Z,14.07
2022-10-28T07:45:39.107Z,12.02
2022-10-28T07:48:07.993Z,11.95
2022-10-28T07:50:36.033Z,10.25
2022-10-28T07:53:44.242Z,14.07
2022-10-28T07:56:14.055Z,13.77
2022-10-28T07:58:42.490Z,13.00
2022-10-28T08:01:12.286Z,14.17
2022-10-28T08:03:40.267Z,12.52
2022-10-28T08:06:10.629Z,12.90
2022-10-28T08:08:38.757Z,13.40
2022-10-28T08:11:15.436Z,12.90
2022-10-28T08:13:43.479Z,12.13
2022-10-28T08:16:11.371Z,13.70
2022-10-28T08:18:40.184Z,13.67
2022-10-28T08:21:09.172Z,12.88
2022-10-28T08:23:38.282Z,13.93
2022-10-28T08:26:06.710Z,13.23
2022-10-28T08:28:35.780Z,10.13
2022-10-28T08:31:08.766Z,15.70
2022-10-28T08:33:38.167Z,11.52
2022-10-28T08:36:06.438Z,10.95
2022-10-28T08:38:34.280Z,12.98
2022-10-28T08:41:12.053Z,12.70
2022-10-28T08:43:57.700Z,14.88
2022-10-28T08:46:31.954Z,13.98
2022-10-28T08:49:02.133Z,14.82
2022-10-28T08:54:06.848Z,15.20
2022-10-28T08:56:35.930Z,13.18
2022-10-28T08:59:06.002Z,12.15
2022-10-28T09:01:39.826Z,13.43
2022-10-28T09:04:14.379Z,12.40
2022-10-28T09:06:41.993Z,14.45
2022-10-28T09:09:44.845Z,13.40
2022-10-28T09:12:18.889Z,13.35
2022-10-28T09:14:57.061Z,13.35
2022-10-28T09:17:30.557Z,16.67
2022-10-28T09:20:00.926Z,12.10
2022-10-28T09:22:32.380Z,15.65
2022-10-28T09:25:03.254Z,12.30
2022-10-28T09:27:51.375Z,15.48
2022-10-28T09:30:32.160Z,14.02
2022-10-28T09:33:10.255Z,11.82
2022-10-28T09:35:41.188Z,13.05
2022-10-28T09:38:16.446Z,13.38
2022-10-28T09:40:51.593Z,12.02
2022-10-28T09:43:24.123Z,11.77
2022-10-28T09:45:54.039Z,12.45
2022-10-28T09:48:24.617Z,13.05
2022-10-28T09:50:54.125Z,10.13
2022-10-28T09:53:35.068Z,15.23
2022-10-28T09:56:06.418Z,12.20
2022-10-28T09:58:34.727Z,12.55
2022-10-28T10:01:03.282Z,11.63
2022-10-28T10:03:30.994Z,14.18
2022-10-28T10:06:01.038Z,13.63
2022-10-28T10:08:31.206Z,14.13
2022-10-28T10:11:02.125Z,16.50
2022-10-28T10:13:35.328Z,12.65
2022-10-28T10:16:06.943Z,12.07
2022-10-28T10:18:35.120Z,10.68
2022-10-28T10:21:02.808Z,16.02
2022-10-28T10:23:32.028Z,11.93
2022-10-28T10:26:03.135Z,13.50
2022-10-28T10:28:34.647Z,10.53
2022-10-28T10:31:04.647Z,13.65
2022-10-28T10:33:34.583Z,10.80
2022-10-28T10:36:05.056Z,11.57
2022-10-28T10:38:33.160Z,11.60
2022-10-28T10:41:00.887Z,12.88
2022-10-28T10:43:33.791Z,14.27
2022-10-28T10:46:03.775Z,10.43
2022-10-28T10:48:33.883Z,9.27
2022-10-28T10:51:06.351Z,12.73
2022-10-28T10:53:34.276Z,13.73
2022-10-28T10:56:03.560Z,14.82
2022-10-28T10:58:34.920Z,11.48
2022-10-28T11:01:04.945Z,10.88
2022-10-28T11:03:36.759Z,9.53
2022-10-28T11:08:59.345Z,9.43
2022-10-28T11:11:33.905Z,11.35
2022-10-28T11:14:08.507Z,11.02
2022-10-28T11:16:48.272Z,11.95
2022-10-28T11:19:21.907Z,12.95
2022-10-28T11:21:58.076Z,13.73
2022-10-28T11:24:42.345Z,9.43
2022-10-28T11:27:15.265Z,11.25
2022-10-28T11:29:45.682Z,13.82
2022-10-28T11:32:21.529Z,11.35
2022-10-28T11:35:11.669Z,11.80
2022-10-28T11:37:49.337Z,11.75
2022-10-28T11:40:27.622Z,11.68
2022-10-28T11:43:06.583Z,9.15
2022-10-28T11:45:40.526Z,9.65
2022-10-28T11:48:19.113Z,9.07
2022-10-28T11:50:54.115Z,11.35
2022-10-28T11:53:57.476Z,13.85
2022-10-28T11:56:31.926Z,13.05
2022-10-28T11:59:08.991Z,12.93
2022-10-28T12:04:05.854Z,11.47
2022-10-28T12:09:55.381Z,11.45
2022-10-28T12:12:28.975Z,11.00
2022-10-28T12:15:01.125Z,12.38
2022-10-28T12:17:35.025Z,12.57
2022-10-28T12:20:09.460Z,9.63
2022-10-28T12:22:43.341Z,12.27
2022-10-28T12:25:15.706Z,11.80
2022-10-28T12:27:45.629Z,12.02
2022-10-28T12:30:20.925Z,11.33
2022-10-28T12:32:50.592Z,12.02
2022-10-28T12:36:34.102Z,11.82
2022-10-28T12:39:03.753Z,11.50
2022-10-28T12:41:46.697Z,9.75
2022-10-28T12:44:15.890Z,12.63
2022-10-28T12:49:26.834Z,10.65
2022-10-28T12:51:57.188Z,10.93
2022-10-28T12:54:28.803Z,9.93
2022-10-28T12:57:04.792Z,12.52
2022-10-28T12:59:38.125Z,13.55
2022-10-28T13:02:08.065Z,14.07
2022-10-28T13:04:56.374Z,11.48
2022-10-28T13:07:38.404Z,14.20
2022-10-28T13:10:17.290Z,10.98
2022-10-28T13:13:03.350Z,14.02
2022-10-28T13:16:06.690Z,11.47
2022-10-28T13:18:49.162Z,11.52
2022-10-28T13:21:25.951Z,10.97
2022-10-28T13:23:56.459Z,13.25
2022-10-28T13:26:26.425Z,11.63
2022-10-28T13:28:55.819Z,8.75
2022-10-28T13:31:23.765Z,10.25
2022-10-28T13:33:57.078Z,10.95
2022-10-28T13:38:33.562Z,12.33
2022-10-28T13:41:29.613Z,10.82
2022-10-28T13:44:22.437Z,10.18
2022-10-28T13:47:25.186Z,12.18
2022-10-28T13:50:15.234Z,16.63
2022-10-28T13:52:44.091Z,12.45
2022-10-28T13:55:25.959Z,11.80
2022-10-28T13:58:00.025Z,9.35
2022-10-28T14:00:38.811Z,11.93
2022-10-28T14:03:07.500Z,11.52
2022-10-28T14:05:52.772Z,11.55
2022-10-28T14:08:22.938Z,10.63
2022-10-28T14:11:03.253Z,11.60
2022-10-28T14:13:32.276Z,13.30
2022-10-28T14:16:25.194Z,13.63
2022-10-28T14:18:56.033Z,15.10
2022-10-28T14:21:24.221Z,11.68
2022-10-28T14:24:11.604Z,12.20
2022-10-28T14:27:28.725Z,13.18
2022-10-28T14:30:24.731Z,13.03
2022-10-28T14:33:22.406Z,16.58
2022-10-28T14:35:55.577Z,12.93
2022-10-28T14:38:36.670Z,16.05
2022-10-28T14:41:25.674Z,13.27
2022-10-28T14:44:02.043Z,14.07
2022-10-28T14:46:41.480Z,12.38
2022-10-28T14:49:16.996Z,12.18
2022-10-28T14:51:45.679Z,14.05
2022-10-28T14:54:16.570Z,11.27
2022-10-28T14:56:44.585Z,10.55
2022-10-28T14:59:24.288Z,12.45
2022-10-28T15:02:01.367Z,12.07
2022-10-28T15:04:30.107Z,15.98
2022-10-28T15:06:58.061Z,10.73
2022-10-28T15:09:27.445Z,11.88
2022-10-28T15:11:58.940Z,9.35
2022-10-28T15:14:29.514Z,11.10
2022-10-28T15:17:00.002Z,12.70
2022-10-28T15:19:29.298Z,14.73
2022-10-28T15:22:05.284Z,15.48
2022-10-28T15:24:33.166Z,12.45
2022-10-28T15:27:01.064Z,13.70
2022-10-28T15:29:29.115Z,13.15
2022-10-28T15:32:16.124Z,10.57
2022-10-28T15:34:44.216Z,13.53
2022-10-28T15:37:12.774Z,10.48
2022-10-28T15:39:40.845Z,11.77
2022-10-28T15:44:04.931Z,24.17
2022-10-28T15:46:33.529Z,11.75
2022-10-28T15:49:02.447Z,11.00
2022-10-28T15:51:30.194Z,12.82
2022-10-28T15:54:11.255Z,9.00
2022-10-28T15:56:54.739Z,16.05
2022-10-28T15:59:24.996Z,16.95
2022-10-28T16:01:55.881Z,11.10
2022-10-28T16:04:43.121Z,10.60
2022-10-28T16:07:10.927Z,13.67
2022-10-28T16:09:44.284Z,11.77
2022-10-28T16:12:15.396Z,12.20
2022-10-28T16:14:45.593Z,9.07
2022-10-28T16:17:16.693Z,13.60
2022-10-28T16:19:49.308Z,11.47
2022-10-28T16:22:18.388Z,10.55
2022-10-28T16:24:47.029Z,14.13
2022-10-28T16:27:17.958Z,9.98
2022-10-28T16:29:47.045Z,9.87
2022-10-28T16:32:15.527Z,13.32
2022-10-28T16:34:43.199Z,13.40
2022-10-28T16:37:20.720Z,13.57
2022-10-28T16:42:41.460Z,10.80
2022-10-28T16:45:18.422Z,9.75
2022-10-28T16:47:46.369Z,12.77
2022-10-28T16:50:14.227Z,14.90
2022-10-28T16:52:41.837Z,10.80
2022-10-28T16:55:13.606Z,9.70
2022-10-28T16:57:42.636Z,11.25
2022-10-28T17:00:14.365Z,12.25
2022-10-28T17:02:42.376Z,13.38
2022-10-28T17:05:17.684Z,14.43
2022-10-28T17:07:45.435Z,14.02
2022-10-28T17:10:13.575Z,10.77
2022-10-28T17:12:42.641Z,12.18
2022-10-28T17:15:11.506Z,14.33
2022-10-28T17:17:39.321Z,11.63
2022-10-28T17:20:08.464Z,12.20
2022-10-28T17:22:36.105Z,12.25
2022-10-28T17:25:03.813Z,16.10
2022-10-28T17:27:31.489Z,15.73
2022-10-28T17:30:00.603Z,11.13
2022-10-28T17:32:28.307Z,12.25
2022-10-28T17:34:55.971Z,13.00
2022-10-28T17:37:23.597Z,11.95
2022-10-28T17:39:52.098Z,10.43
2022-10-28T17:42:19.814Z,12.87
2022-10-28T17:44:47.398Z,10.63
2022-10-28T17:47:16.468Z,9.00
2022-10-28T17:49:44.123Z,11.20
2022-10-28T17:52:11.834Z,9.00
2022-10-28T17:54:39.468Z,10.77
2022-10-28T17:57:08.122Z,10.98
2022-10-28T17:59:36.103Z,10.10
2022-10-28T18:02:03.891Z,10.80
2022-10-28T18:04:33.294Z,11.75
2022-10-28T18:07:00.885Z,9.27
2022-10-28T18:09:31.617Z,8.85
2022-10-28T18:11:59.738Z,11.60
2022-10-28T18:14:28.317Z,12.02
2022-10-28T18:16:55.994Z,10.80
2022-10-28T18:19:23.727Z,11.38
2022-10-28T18:21:52.813Z,13.23
2022-10-28T18:24:23.368Z,10.20
2022-10-28T18:26:55.446Z,9.55
2022-10-28T18:29:23.158Z,10.48
2022-10-28T18:31:50.848Z,10.90
2022-10-28T18:34:18.699Z,10.10
2022-10-28T18:36:46.456Z,9.37
2022-10-28T18:39:15.541Z,10.65
2022-10-28T18:41:44.587Z,12.73
2022-10-28T18:44:14.185Z,11.73
2022-10-28T18:46:42.166Z,11.73
2022-10-28T18:49:09.863Z,11.93
2022-10-28T18:51:37.595Z,11.02
2022-10-28T18:54:05.736Z,14.75
2022-10-28T18:56:35.108Z,11.73
2022-10-28T18:59:03.851Z,13.98
2022-10-28T19:01:32.239Z,12.10
2022-10-28T19:04:01.396Z,10.90
2022-10-28T19:06:32.485Z,12.83
2022-10-28T19:09:02.557Z,14.27
2022-10-28T19:11:32.416Z,12.55
2022-10-28T19:14:02.736Z,13.00
2022-10-28T19:16:31.910Z,13.38
2022-10-28T19:19:00.576Z,13.10
2022-10-28T19:21:29.021Z,13.27
2022-10-28T19:23:56.907Z,13.00
2022-10-28T19:26:24.727Z,15.13
2022-10-28T19:28:52.992Z,10.75
2022-10-28T19:31:24.183Z,16.25
2022-10-28T19:33:52.876Z,14.82
2022-10-28T19:36:21.744Z,18.13
2022-10-28T19:38:50.771Z,17.77
2022-10-28T19:41:20.042Z,21.00
2022-10-28T19:43:49.742Z,21.73
2022-10-28T19:46:22.842Z,24.07
2022-10-28T19:48:52.213Z,23.42
2022-10-28T19:51:21.799Z,22.67
2022-10-28T19:53:50.016Z,23.40
2022-10-28T19:56:19.363Z,20.58
2022-10-28T19:58:48.105Z,22.87
2022-10-28T20:01:17.464Z,25.40
2022-10-28T20:03:49.332Z,20.73
2022-10-28T20:06:18.277Z,16.45
2022-10-28T20:08:47.996Z,20.70
2022-10-28T20:11:20.088Z,22.45
2022-10-28T20:13:53.320Z,24.02
2022-10-28T20:16:21.104Z,20.48
2022-10-28T20:18:50.570Z,20.25
2022-10-28T20:21:19.685Z,20.63
2022-10-28T20:23:49.354Z,17.35
2022-10-28T20:26:17.889Z,18.70
2022-10-28T20:28:45.540Z,20.13
2022-10-28T20:31:15.218Z,17.83
2022-10-28T20:33:44.235Z,15.27
2022-10-28T20:36:24.556Z,16.35
2022-10-28T20:38:55.680Z,19.98
2022-10-28T20:41:24.244Z,17.88
2022-10-28T20:43:52.521Z,16.13
2022-10-28T20:46:20.620Z,15.95
2022-10-28T20:48:48.718Z,15.82
2022-10-28T20:51:16.592Z,15.73
2022-10-28T20:53:45.633Z,18.20
2022-10-28T20:56:17.036Z,15.57
2022-10-28T20:58:44.685Z,15.15
2022-10-28T21:01:14.599Z,14.23
2022-10-28T21:03:42.763Z,13.50
2022-10-28T21:06:10.960Z,15.48
2022-10-28T21:08:38.786Z,17.10
2022-10-28T21:11:10.082Z,16.27
2022-10-28T21:13:37.811Z,14.03
2022-10-28T21:16:06.535Z,13.23
2022-10-28T21:18:34.507Z,16.05
2022-10-28T21:21:02.192Z,15.02
2022-10-28T21:23:29.964Z,14.23
2022-10-28T21:25:59.779Z,13.77
2022-10-28T21:28:30.041Z,16.97
2022-10-28T21:31:01.463Z,18.95
2022-10-28T21:33:29.712Z,18.33
2022-10-28T21:35:58.105Z,15.60
2022-10-28T21:38:25.996Z,18.25
2022-10-28T21:41:00.753Z,19.63
2022-10-28T21:43:31.339Z,18.25
2022-10-28T21:45:59.344Z,14.57
2022-10-28T21:48:27.811Z,13.57
2022-10-28T21:50:56.829Z,15.75
2022-10-28T21:53:25.064Z,14.50
2022-10-28T21:55:54.862Z,13.88
2022-10-28T21:58:23.223Z,14.55
2022-10-28T22:00:52.243Z,14.63
2022-10-28T22:03:19.899Z,18.13
2022-10-28T22:05:51.168Z,19.00
2022-10-28T22:08:18.803Z,18.92
2022-10-28T22:10:46.566Z,20.58
2022-10-28T22:13:14.307Z,24.67
2022-10-28T22:15:42.171Z,20.80
2022-10-28T22:18:11.289Z,24.55
2022-10-28T22:20:39.142Z,28.77
2022-10-28T22:23:06.885Z,27.70
2022-10-28T22:25:34.637Z,33.88
2022-10-28T22:28:02.297Z,31.08
2022-10-28T22:30:29.981Z,28.58
2022-10-28T22:32:57.922Z,32.47
2022-10-28T22:35:27.189Z,29.25
2022-10-28T22:37:55.146Z,28.70
2022-10-28T22:40:23.064Z,28.58
2022-10-28T22:42:50.878Z,27.13
2022-10-28T22:45:18.665Z,27.98
2022-10-28T22:47:46.363Z,26.17
2022-10-28T22:50:14.170Z,22.73
2022-10-28T22:52:43.265Z,23.00
2022-10-28T22:55:11.261Z,20.92
2022-10-28T22:57:39.026Z,21.15
2022-10-28T23:00:07.999Z,22.17
2022-10-28T23:02:35.856Z,26.55
2022-10-28T23:05:03.679Z,30.13
2022-10-28T23:07:31.345Z,29.73
2022-10-28T23:10:00.514Z,29.15
2022-10-28T23:12:28.196Z,32.40
2022-10-28T23:14:55.947Z,30.20
2022-10-28T23:17:23.687Z,32.30
2022-10-28T23:19:51.368Z,33.03
2022-10-28T23:22:18.997Z,35.78
2022-10-28T23:24:46.761Z,34.55
2022-10-28T23:27:15.917Z,33.23
2022-10-28T23:29:43.645Z,29.98
2022-10-28T23:32:11.362Z,30.85
2022-10-28T23:34:39.083Z,30.85
2022-10-28T23:37:06.838Z,28.67
2022-10-28T23:39:34.483Z,29.73
2022-10-28T23:42:02.160Z,30.58
2022-10-28T23:44:31.270Z,35.00
2022-10-28T23:46:58.950Z,38.85
2022-10-28T23:49:26.656Z,42.90
2022-10-28T23:51:54.297Z,40.17
2022-10-28T23:54:22.010Z,40.03
2022-10-28T23:56:49.757Z,31.67
2022-10-28T23:59:17.452Z,29.63
